sensor_id;sensor_type;location;lat;lon;timestamp;P1;durP1;ratioP1;P2;durP2;ratioP2
3865;SDS011;1948;53.250;10.412;2022-07-18T00:01:02;5.10;;;4.70;;
3865;SDS011;1948;53.250;10.412;2022-07-18T00:03:29;5.73;;;5.23;;
3865;SDS011;1948;53.250;10.412;2022-07-18T00:05:58;9.93;;;4.57;;
3865;SDS011;1948;53.250;10.412;2022-07-18T00:08:25;4.63;;;4.40;;
3865;SDS011;1948;53.250;10.412;2022-07-18T00:10:52;7.00;;;5.10;;
3865;SDS011;1948;53.250;10.412;2022-07-18T00:13:19;8.43;;;5.43;;
3865;SDS011;1948;53.250;10.412;2022-07-18T00:15:48;5.73;;;5.30;;
3865;SDS011;1948;53.250;10.412;2022-07-18T00:18:17;7.10;;;5.03;;
3865;SDS011;1948;53.250;10.412;2022-07-18T00:20:44;5.60;;;5.20;;
3865;SDS011;1948;53.250;10.412;2022-07-18T00:23:11;4.63;;;4.43;;
3865;SDS011;1948;53.250;10.412;2022-07-18T00:25:38;5.40;;;4.90;;
3865;SDS011;1948;53.250;10.412;2022-07-18T00:28:08;8.07;;;4.70;;
3865;SDS011;1948;53.250;10.412;2022-07-18T00:30:41;5.10;;;4.70;;
3865;SDS011;1948;53.250;10.412;2022-07-18T00:33:09;4.93;;;4.37;;
3865;SDS011;1948;53.250;10.412;2022-07-18T00:35:36;11.90;;;4.23;;
3865;SDS011;1948;53.250;10.412;2022-07-18T00:38:06;4.23;;;4.03;;
3865;SDS011;1948;53.250;10.412;2022-07-18T00:40:35;9.43;;;4.93;;
3865;SDS011;1948;53.250;10.412;2022-07-18T00:43:02;6.53;;;4.93;;
3865;SDS011;1948;53.250;10.412;2022-07-18T00:45:32;11.80;;;4.77;;
3865;SDS011;1948;53.250;10.412;2022-07-18T00:48:04;5.40;;;4.90;;
3865;SDS011;1948;53.250;10.412;2022-07-18T00:50:34;5.90;;;4.70;;
3865;SDS011;1948;53.250;10.412;2022-07-18T00:53:01;7.53;;;4.50;;
3865;SDS011;1948;53.250;10.412;2022-07-18T00:55:28;4.23;;;4.13;;
3865;SDS011;1948;53.250;10.412;2022-07-18T00:57:55;4.80;;;4.13;;
3865;SDS011;1948;53.250;10.412;2022-07-18T01:00:24;4.90;;;4.50;;
3865;SDS011;1948;53.250;10.412;2022-07-18T01:03:10;12.47;;;4.20;;
3865;SDS011;1948;53.250;10.412;2022-07-18T01:05:39;5.20;;;5.00;;
3865;SDS011;1948;53.250;10.412;2022-07-18T01:08:06;6.80;;;4.67;;
3865;SDS011;1948;53.250;10.412;2022-07-18T01:10:33;5.27;;;4.87;;
3865;SDS011;1948;53.250;10.412;2022-07-18T01:13:03;15.47;;;5.00;;
3865;SDS011;1948;53.250;10.412;2022-07-18T01:15:30;4.63;;;4.33;;
3865;SDS011;1948;53.250;10.412;2022-07-18T01:17:57;5.60;;;5.20;;
3865;SDS011;1948;53.250;10.412;2022-07-18T01:20:28;4.40;;;4.10;;
3865;SDS011;1948;53.250;10.412;2022-07-18T01:22:57;8.50;;;4.43;;
3865;SDS011;1948;53.250;10.412;2022-07-18T01:25:27;5.80;;;4.27;;
3865;SDS011;1948;53.250;10.412;2022-07-18T01:27:54;4.90;;;3.87;;
3865;SDS011;1948;53.250;10.412;2022-07-18T01:30:23;11.53;;;5.10;;
3865;SDS011;1948;53.250;10.412;2022-07-18T01:32:57;4.30;;;4.10;;
3865;SDS011;1948;53.250;10.412;2022-07-18T01:35:27;4.00;;;3.90;;
3865;SDS011;1948;53.250;10.412;2022-07-18T01:37:56;6.13;;;5.10;;
3865;SDS011;1948;53.250;10.412;2022-07-18T01:40:28;4.60;;;4.17;;
3865;SDS011;1948;53.250;10.412;2022-07-18T01:42:59;5.90;;;4.77;;
3865;SDS011;1948;53.250;10.412;2022-07-18T01:45:26;5.03;;;4.63;;
3865;SDS011;1948;53.250;10.412;2022-07-18T01:47:53;5.80;;;4.47;;
3865;SDS011;1948;53.250;10.412;2022-07-18T01:50:20;4.30;;;4.10;;
3865;SDS011;1948;53.250;10.412;2022-07-18T01:52:47;5.00;;;4.80;;
3865;SDS011;1948;53.250;10.412;2022-07-18T01:55:16;4.80;;;4.43;;
3865;SDS011;1948;53.250;10.412;2022-07-18T01:57:44;6.23;;;4.40;;
3865;SDS011;1948;53.250;10.412;2022-07-18T02:00:11;4.97;;;4.57;;
3865;SDS011;1948;53.250;10.412;2022-07-18T02:02:39;8.90;;;4.60;;
3865;SDS011;1948;53.250;10.412;2022-07-18T02:05:06;5.63;;;4.50;;
3865;SDS011;1948;53.250;10.412;2022-07-18T02:07:37;5.30;;;4.90;;
3865;SDS011;1948;53.250;10.412;2022-07-18T02:12:40;5.13;;;4.67;;
3865;SDS011;1948;53.250;10.412;2022-07-18T02:15:11;5.73;;;5.07;;
3865;SDS011;1948;53.250;10.412;2022-07-18T02:17:39;8.63;;;4.93;;
3865;SDS011;1948;53.250;10.412;2022-07-18T02:20:08;4.60;;;4.40;;
3865;SDS011;1948;53.250;10.412;2022-07-18T02:22:37;5.53;;;4.83;;
3865;SDS011;1948;53.250;10.412;2022-07-18T02:25:05;7.63;;;5.33;;
3865;SDS011;1948;53.250;10.412;2022-07-18T02:27:35;14.23;;;5.53;;
3865;SDS011;1948;53.250;10.412;2022-07-18T02:30:03;4.93;;;4.53;;
3865;SDS011;1948;53.250;10.412;2022-07-18T02:32:32;4.97;;;4.80;;
3865;SDS011;1948;53.250;10.412;2022-07-18T02:35:04;6.20;;;4.30;;
3865;SDS011;1948;53.250;10.412;2022-07-18T02:37:33;6.40;;;5.53;;
3865;SDS011;1948;53.250;10.412;2022-07-18T02:40:01;4.87;;;4.53;;
3865;SDS011;1948;53.250;10.412;2022-07-18T02:42:28;5.40;;;4.93;;
3865;SDS011;1948;53.250;10.412;2022-07-18T02:44:55;6.53;;;5.40;;
3865;SDS011;1948;53.250;10.412;2022-07-18T02:47:25;5.83;;;5.47;;
3865;SDS011;1948;53.250;10.412;2022-07-18T02:49:52;8.13;;;5.10;;
3865;SDS011;1948;53.250;10.412;2022-07-18T02:52:19;5.60;;;5.10;;
3865;SDS011;1948;53.250;10.412;2022-07-18T02:54:46;11.80;;;5.03;;
3865;SDS011;1948;53.250;10.412;2022-07-18T02:57:17;5.87;;;5.37;;
3865;SDS011;1948;53.250;10.412;2022-07-18T02:59:44;12.20;;;5.37;;
3865;SDS011;1948;53.250;10.412;2022-07-18T03:02:14;5.43;;;4.93;;
3865;SDS011;1948;53.250;10.412;2022-07-18T03:04:41;5.30;;;4.90;;
3865;SDS011;1948;53.250;10.412;2022-07-18T03:07:07;7.00;;;5.37;;
3865;SDS011;1948;53.250;10.412;2022-07-18T03:09:34;10.10;;;4.87;;
3865;SDS011;1948;53.250;10.412;2022-07-18T03:12:02;6.00;;;5.50;;
3865;SDS011;1948;53.250;10.412;2022-07-18T03:14:29;5.13;;;4.80;;
3865;SDS011;1948;53.250;10.412;2022-07-18T03:16:58;7.97;;;5.00;;
3865;SDS011;1948;53.250;10.412;2022-07-18T03:19:31;5.03;;;4.73;;
3865;SDS011;1948;53.250;10.412;2022-07-18T03:21:59;5.57;;;5.17;;
3865;SDS011;1948;53.250;10.412;2022-07-18T03:24:26;7.63;;;5.50;;
3865;SDS011;1948;53.250;10.412;2022-07-18T03:26:56;5.50;;;4.97;;
3865;SDS011;1948;53.250;10.412;2022-07-18T03:29:23;10.30;;;5.20;;
3865;SDS011;1948;53.250;10.412;2022-07-18T03:31:51;5.90;;;5.33;;
3865;SDS011;1948;53.250;10.412;2022-07-18T03:34:20;5.30;;;4.87;;
3865;SDS011;1948;53.250;10.412;2022-07-18T03:36:47;6.50;;;5.20;;
3865;SDS011;1948;53.250;10.412;2022-07-18T03:39:15;5.30;;;4.80;;
3865;SDS011;1948;53.250;10.412;2022-07-18T03:41:42;8.30;;;5.37;;
3865;SDS011;1948;53.250;10.412;2022-07-18T03:44:11;5.33;;;4.93;;
3865;SDS011;1948;53.250;10.412;2022-07-18T03:46:40;6.93;;;5.40;;
3865;SDS011;1948;53.250;10.412;2022-07-18T03:49:07;5.83;;;5.60;;
3865;SDS011;1948;53.250;10.412;2022-07-18T03:51:37;6.10;;;5.60;;
3865;SDS011;1948;53.250;10.412;2022-07-18T03:54:06;6.93;;;4.77;;
3865;SDS011;1948;53.250;10.412;2022-07-18T03:56:35;5.33;;;4.93;;
3865;SDS011;1948;53.250;10.412;2022-07-18T03:59:05;5.20;;;4.70;;
3865;SDS011;1948;53.250;10.412;2022-07-18T04:01:32;6.97;;;4.77;;
3865;SDS011;1948;53.250;10.412;2022-07-18T04:03:59;5.83;;;5.43;;
3865;SDS011;1948;53.250;10.412;2022-07-18T04:06:27;6.70;;;4.93;;
3865;SDS011;1948;53.250;10.412;2022-07-18T04:08:54;5.03;;;4.80;;
3865;SDS011;1948;53.250;10.412;2022-07-18T04:11:21;5.30;;;5.10;;
3865;SDS011;1948;53.250;10.412;2022-07-18T04:13:51;6.10;;;5.50;;
3865;SDS011;1948;53.250;10.412;2022-07-18T04:16:18;8.07;;;4.87;;
3865;SDS011;1948;53.250;10.412;2022-07-18T04:18:46;7.40;;;4.83;;
3865;SDS011;1948;53.250;10.412;2022-07-18T04:21:13;5.60;;;5.10;;
3865;SDS011;1948;53.250;10.412;2022-07-18T04:23:43;7.27;;;5.50;;
3865;SDS011;1948;53.250;10.412;2022-07-18T04:26:13;5.27;;;4.97;;
3865;SDS011;1948;53.250;10.412;2022-07-18T04:28:40;5.03;;;4.63;;
3865;SDS011;1948;53.250;10.412;2022-07-18T04:31:07;11.30;;;4.97;;
3865;SDS011;1948;53.250;10.412;2022-07-18T04:33:34;7.93;;;5.17;;
3865;SDS011;1948;53.250;10.412;2022-07-18T04:36:01;5.50;;;5.03;;
3865;SDS011;1948;53.250;10.412;2022-07-18T04:38:28;6.50;;;4.97;;
3865;SDS011;1948;53.250;10.412;2022-07-18T04:41:00;11.17;;;5.07;;
3865;SDS011;1948;53.250;10.412;2022-07-18T04:43:29;7.87;;;4.40;;
3865;SDS011;1948;53.250;10.412;2022-07-18T04:45:57;7.10;;;5.27;;
3865;SDS011;1948;53.250;10.412;2022-07-18T04:48:25;8.40;;;4.93;;
3865;SDS011;1948;53.250;10.412;2022-07-18T04:50:52;16.97;;;5.40;;
3865;SDS011;1948;53.250;10.412;2022-07-18T04:53:19;5.10;;;4.70;;
3865;SDS011;1948;53.250;10.412;2022-07-18T04:55:48;4.90;;;4.60;;
3865;SDS011;1948;53.250;10.412;2022-07-18T04:58:20;5.93;;;5.40;;
3865;SDS011;1948;53.250;10.412;2022-07-18T05:00:47;4.53;;;4.33;;
3865;SDS011;1948;53.250;10.412;2022-07-18T05:03:14;5.30;;;4.80;;
3865;SDS011;1948;53.250;10.412;2022-07-18T05:05:41;8.47;;;5.07;;
3865;SDS011;1948;53.250;10.412;2022-07-18T05:08:10;5.43;;;5.03;;
3865;SDS011;1948;53.250;10.412;2022-07-18T05:10:38;5.60;;;4.90;;
3865;SDS011;1948;53.250;10.412;2022-07-18T05:13:08;6.33;;;4.80;;
3865;SDS011;1948;53.250;10.412;2022-07-18T05:15:35;6.00;;;5.20;;
3865;SDS011;1948;53.250;10.412;2022-07-18T05:18:02;10.00;;;5.47;;
3865;SDS011;1948;53.250;10.412;2022-07-18T05:20:29;10.87;;;5.47;;
3865;SDS011;1948;53.250;10.412;2022-07-18T05:22:56;10.50;;;4.47;;
3865;SDS011;1948;53.250;10.412;2022-07-18T05:25:23;4.73;;;4.23;;
3865;SDS011;1948;53.250;10.412;2022-07-18T05:27:55;4.30;;;3.90;;
3865;SDS011;1948;53.250;10.412;2022-07-18T05:30:22;4.50;;;4.10;;
3865;SDS011;1948;53.250;10.412;2022-07-18T05:32:50;4.50;;;4.20;;
3865;SDS011;1948;53.250;10.412;2022-07-18T05:35:18;4.50;;;4.27;;
3865;SDS011;1948;53.250;10.412;2022-07-18T05:37:48;4.80;;;4.50;;
3865;SDS011;1948;53.250;10.412;2022-07-18T05:40:18;4.27;;;4.07;;
3865;SDS011;1948;53.250;10.412;2022-07-18T05:42:45;4.57;;;4.10;;
3865;SDS011;1948;53.250;10.412;2022-07-18T05:45:19;4.70;;;4.30;;
3865;SDS011;1948;53.250;10.412;2022-07-18T05:47:51;7.70;;;4.97;;
3865;SDS011;1948;53.250;10.412;2022-07-18T05:50:22;3.80;;;3.60;;
3865;SDS011;1948;53.250;10.412;2022-07-18T05:52:49;4.77;;;4.13;;
3865;SDS011;1948;53.250;10.412;2022-07-18T05:55:17;11.73;;;3.67;;
3865;SDS011;1948;53.250;10.412;2022-07-18T05:57:44;10.17;;;4.70;;
3865;SDS011;1948;53.250;10.412;2022-07-18T06:00:11;4.37;;;3.97;;
3865;SDS011;1948;53.250;10.412;2022-07-18T06:02:39;4.53;;;3.60;;
3865;SDS011;1948;53.250;10.412;2022-07-18T06:05:09;5.67;;;3.60;;
3865;SDS011;1948;53.250;10.412;2022-07-18T06:07:51;24.17;;;3.97;;
3865;SDS011;1948;53.250;10.412;2022-07-18T06:10:20;10.30;;;4.90;;
3865;SDS011;1948;53.250;10.412;2022-07-18T06:12:48;3.90;;;3.67;;
3865;SDS011;1948;53.250;10.412;2022-07-18T06:15:16;8.03;;;4.10;;
3865;SDS011;1948;53.250;10.412;2022-07-18T06:17:46;7.73;;;3.83;;
3865;SDS011;1948;53.250;10.412;2022-07-18T06:20:16;16.27;;;4.20;;
3865;SDS011;1948;53.250;10.412;2022-07-18T06:22:48;4.77;;;3.50;;
3865;SDS011;1948;53.250;10.412;2022-07-18T06:25:17;5.73;;;4.00;;
3865;SDS011;1948;53.250;10.412;2022-07-18T06:27:47;4.10;;;3.73;;
3865;SDS011;1948;53.250;10.412;2022-07-18T06:30:18;7.40;;;3.70;;
3865;SDS011;1948;53.250;10.412;2022-07-18T06:32:49;8.90;;;4.50;;
3865;SDS011;1948;53.250;10.412;2022-07-18T06:35:16;9.80;;;3.77;;
3865;SDS011;1948;53.250;10.412;2022-07-18T06:37:45;13.93;;;3.30;;
3865;SDS011;1948;53.250;10.412;2022-07-18T06:40:12;3.93;;;3.63;;
3865;SDS011;1948;53.250;10.412;2022-07-18T06:42:39;10.10;;;3.80;;
3865;SDS011;1948;53.250;10.412;2022-07-18T06:45:09;4.43;;;3.50;;
3865;SDS011;1948;53.250;10.412;2022-07-18T06:47:41;4.77;;;3.77;;
3865;SDS011;1948;53.250;10.412;2022-07-18T06:50:10;13.20;;;3.63;;
3865;SDS011;1948;53.250;10.412;2022-07-18T06:52:39;11.47;;;2.97;;
3865;SDS011;1948;53.250;10.412;2022-07-18T06:55:08;14.60;;;3.37;;
3865;SDS011;1948;53.250;10.412;2022-07-18T06:57:36;3.77;;;3.47;;
3865;SDS011;1948;53.250;10.412;2022-07-18T07:00:05;3.50;;;3.30;;
3865;SDS011;1948;53.250;10.412;2022-07-18T07:02:44;4.17;;;3.60;;
3865;SDS011;1948;53.250;10.412;2022-07-18T07:05:19;3.23;;;3.13;;
3865;SDS011;1948;53.250;10.412;2022-07-18T07:07:47;3.63;;;3.30;;
3865;SDS011;1948;53.250;10.412;2022-07-18T07:10:15;4.40;;;3.93;;
3865;SDS011;1948;53.250;10.412;2022-07-18T07:12:47;4.03;;;3.57;;
3865;SDS011;1948;53.250;10.412;2022-07-18T07:15:18;10.40;;;3.17;;
3865;SDS011;1948;53.250;10.412;2022-07-18T07:17:48;5.93;;;3.23;;
3865;SDS011;1948;53.250;10.412;2022-07-18T07:20:18;3.60;;;3.30;;
3865;SDS011;1948;53.250;10.412;2022-07-18T07:22:48;3.00;;;2.87;;
3865;SDS011;1948;53.250;10.412;2022-07-18T07:25:27;3.10;;;2.90;;
3865;SDS011;1948;53.250;10.412;2022-07-18T07:27:55;3.53;;;2.80;;
3865;SDS011;1948;53.250;10.412;2022-07-18T07:30:22;4.00;;;3.27;;
3865;SDS011;1948;53.250;10.412;2022-07-18T07:32:52;6.40;;;3.13;;
3865;SDS011;1948;53.250;10.412;2022-07-18T07:35:21;16.10;;;3.87;;
3865;SDS011;1948;53.250;10.412;2022-07-18T07:37:51;8.03;;;3.80;;
3865;SDS011;1948;53.250;10.412;2022-07-18T07:40:23;4.13;;;3.63;;
3865;SDS011;1948;53.250;10.412;2022-07-18T07:43:04;9.70;;;4.50;;
3865;SDS011;1948;53.250;10.412;2022-07-18T07:45:36;9.10;;;4.13;;
3865;SDS011;1948;53.250;10.412;2022-07-18T07:48:03;5.30;;;4.27;;
3865;SDS011;1948;53.250;10.412;2022-07-18T07:50:31;6.00;;;4.67;;
3865;SDS011;1948;53.250;10.412;2022-07-18T07:53:01;4.17;;;3.87;;
3865;SDS011;1948;53.250;10.412;2022-07-18T07:55:28;4.43;;;3.60;;
3865;SDS011;1948;53.250;10.412;2022-07-18T07:57:57;10.63;;;3.37;;
3865;SDS011;1948;53.250;10.412;2022-07-18T08:00:27;6.13;;;3.30;;
3865;SDS011;1948;53.250;10.412;2022-07-18T08:02:56;4.70;;;4.07;;
3865;SDS011;1948;53.250;10.412;2022-07-18T08:05:29;4.30;;;4.00;;
3865;SDS011;1948;53.250;10.412;2022-07-18T08:07:59;4.70;;;4.30;;
3865;SDS011;1948;53.250;10.412;2022-07-18T08:10:29;12.87;;;4.40;;
3865;SDS011;1948;53.250;10.412;2022-07-18T08:12:57;7.37;;;4.17;;
3865;SDS011;1948;53.250;10.412;2022-07-18T08:15:26;4.70;;;4.40;;
3865;SDS011;1948;53.250;10.412;2022-07-18T08:17:56;4.87;;;4.57;;
3865;SDS011;1948;53.250;10.412;2022-07-18T08:20:23;4.77;;;4.40;;
3865;SDS011;1948;53.250;10.412;2022-07-18T08:25:32;4.73;;;4.53;;
3865;SDS011;1948;53.250;10.412;2022-07-18T08:28:05;5.37;;;5.10;;
3865;SDS011;1948;53.250;10.412;2022-07-18T08:30:33;6.33;;;5.30;;
3865;SDS011;1948;53.250;10.412;2022-07-18T08:33:01;8.00;;;5.67;;
3865;SDS011;1948;53.250;10.412;2022-07-18T08:35:29;7.13;;;6.50;;
3865;SDS011;1948;53.250;10.412;2022-07-18T08:38:00;7.60;;;6.27;;
3865;SDS011;1948;53.250;10.412;2022-07-18T08:40:29;9.93;;;7.00;;
3865;SDS011;1948;53.250;10.412;2022-07-18T08:42:57;9.03;;;6.20;;
3865;SDS011;1948;53.250;10.412;2022-07-18T08:45:45;6.73;;;6.13;;
3865;SDS011;1948;53.250;10.412;2022-07-18T08:48:14;6.20;;;5.60;;
3865;SDS011;1948;53.250;10.412;2022-07-18T08:50:44;10.47;;;6.20;;
3865;SDS011;1948;53.250;10.412;2022-07-18T08:53:16;18.60;;;7.00;;
3865;SDS011;1948;53.250;10.412;2022-07-18T08:55:46;9.97;;;6.27;;
3865;SDS011;1948;53.250;10.412;2022-07-18T08:58:18;10.63;;;6.20;;
3865;SDS011;1948;53.250;10.412;2022-07-18T09:01:05;6.20;;;5.60;;
3865;SDS011;1948;53.250;10.412;2022-07-18T09:03:33;7.00;;;6.40;;
3865;SDS011;1948;53.250;10.412;2022-07-18T09:08:34;6.20;;;5.60;;
3865;SDS011;1948;53.250;10.412;2022-07-18T09:11:11;4.97;;;4.73;;
3865;SDS011;1948;53.250;10.412;2022-07-18T09:13:58;5.07;;;4.77;;
3865;SDS011;1948;53.250;10.412;2022-07-18T09:16:30;6.17;;;5.27;;
3865;SDS011;1948;53.250;10.412;2022-07-18T09:19:00;8.13;;;5.23;;
3865;SDS011;1948;53.250;10.412;2022-07-18T09:21:35;5.00;;;4.70;;
3865;SDS011;1948;53.250;10.412;2022-07-18T09:24:05;7.67;;;4.80;;
3865;SDS011;1948;53.250;10.412;2022-07-18T09:29:08;5.83;;;5.20;;
3865;SDS011;1948;53.250;10.412;2022-07-18T09:31:52;5.93;;;5.33;;
3865;SDS011;1948;53.250;10.412;2022-07-18T09:34:34;11.93;;;4.97;;
3865;SDS011;1948;53.250;10.412;2022-07-18T09:37:04;6.33;;;5.67;;
3865;SDS011;1948;53.250;10.412;2022-07-18T09:39:37;6.73;;;4.50;;
3865;SDS011;1948;53.250;10.412;2022-07-18T09:42:14;4.93;;;4.60;;
3865;SDS011;1948;53.250;10.412;2022-07-18T09:45:00;4.77;;;4.47;;
3865;SDS011;1948;53.250;10.412;2022-07-18T09:47:27;5.40;;;5.10;;
3865;SDS011;1948;53.250;10.412;2022-07-18T09:49:57;5.53;;;5.23;;
3865;SDS011;1948;53.250;10.412;2022-07-18T09:52:26;5.80;;;5.50;;
3865;SDS011;1948;53.250;10.412;2022-07-18T09:54:53;5.20;;;4.90;;
3865;SDS011;1948;53.250;10.412;2022-07-18T09:57:31;7.77;;;5.67;;
3865;SDS011;1948;53.250;10.412;2022-07-18T10:00:03;6.93;;;4.80;;
3865;SDS011;1948;53.250;10.412;2022-07-18T10:02:30;6.50;;;5.90;;
3865;SDS011;1948;53.250;10.412;2022-07-18T10:04:58;5.37;;;5.00;;
3865;SDS011;1948;53.250;10.412;2022-07-18T10:07:25;5.67;;;5.20;;
3865;SDS011;1948;53.250;10.412;2022-07-18T10:09:52;5.47;;;5.07;;
3865;SDS011;1948;53.250;10.412;2022-07-18T10:12:24;6.70;;;6.20;;
3865;SDS011;1948;53.250;10.412;2022-07-18T10:14:51;5.67;;;5.33;;
3865;SDS011;1948;53.250;10.412;2022-07-18T10:17:21;5.97;;;5.57;;
3865;SDS011;1948;53.250;10.412;2022-07-18T10:19:53;6.50;;;5.80;;
3865;SDS011;1948;53.250;10.412;2022-07-18T10:22:20;6.33;;;5.30;;
3865;SDS011;1948;53.250;10.412;2022-07-18T10:24:50;5.70;;;5.13;;
3865;SDS011;1948;53.250;10.412;2022-07-18T10:27:21;5.83;;;5.30;;
3865;SDS011;1948;53.250;10.412;2022-07-18T10:32:57;8.30;;;5.37;;
3865;SDS011;1948;53.250;10.412;2022-07-18T10:38:30;5.10;;;4.70;;
3865;SDS011;1948;53.250;10.412;2022-07-18T10:41:15;6.17;;;5.17;;
3865;SDS011;1948;53.250;10.412;2022-07-18T10:43:43;5.67;;;5.27;;
3865;SDS011;1948;53.250;10.412;2022-07-18T10:46:11;5.40;;;5.20;;
3865;SDS011;1948;53.250;10.412;2022-07-18T10:51:07;7.57;;;5.23;;
3865;SDS011;1948;53.250;10.412;2022-07-18T10:56:20;5.10;;;4.60;;
3865;SDS011;1948;53.250;10.412;2022-07-18T11:01:49;4.60;;;4.20;;
3865;SDS011;1948;53.250;10.412;2022-07-18T11:04:25;8.27;;;4.03;;
3865;SDS011;1948;53.250;10.412;2022-07-18T11:09:46;4.97;;;3.87;;
3865;SDS011;1948;53.250;10.412;2022-07-18T11:12:23;4.50;;;3.97;;
3865;SDS011;1948;53.250;10.412;2022-07-18T11:25:56;3.43;;;3.30;;
3865;SDS011;1948;53.250;10.412;2022-07-18T11:28:25;4.17;;;3.93;;
3865;SDS011;1948;53.250;10.412;2022-07-18T11:33:47;5.93;;;3.90;;
3865;SDS011;1948;53.250;10.412;2022-07-18T11:36:17;8.23;;;3.27;;
3865;SDS011;1948;53.250;10.412;2022-07-18T11:38:52;4.23;;;3.93;;
3865;SDS011;1948;53.250;10.412;2022-07-18T11:41:22;4.40;;;4.00;;
3865;SDS011;1948;53.250;10.412;2022-07-18T11:43:50;3.87;;;3.67;;
3865;SDS011;1948;53.250;10.412;2022-07-18T11:46:21;4.47;;;3.37;;
3865;SDS011;1948;53.250;10.412;2022-07-18T11:49:03;3.50;;;3.40;;
3865;SDS011;1948;53.250;10.412;2022-07-18T11:51:36;3.90;;;3.60;;
3865;SDS011;1948;53.250;10.412;2022-07-18T11:54:07;10.13;;;3.60;;
3865;SDS011;1948;53.250;10.412;2022-07-18T11:59:37;8.50;;;3.70;;
3865;SDS011;1948;53.250;10.412;2022-07-18T12:02:07;5.37;;;3.60;;
3865;SDS011;1948;53.250;10.412;2022-07-18T12:04:38;5.97;;;3.23;;
3865;SDS011;1948;53.250;10.412;2022-07-18T12:07:19;3.33;;;3.13;;
3865;SDS011;1948;53.250;10.412;2022-07-18T12:09:52;5.13;;;3.70;;
3865;SDS011;1948;53.250;10.412;2022-07-18T12:12:25;3.30;;;3.20;;
3865;SDS011;1948;53.250;10.412;2022-07-18T12:14:52;3.80;;;3.60;;
3865;SDS011;1948;53.250;10.412;2022-07-18T12:17:28;4.20;;;3.27;;
3865;SDS011;1948;53.250;10.412;2022-07-18T12:20:13;4.23;;;3.70;;
3865;SDS011;1948;53.250;10.412;2022-07-18T12:23:05;3.50;;;3.40;;
3865;SDS011;1948;53.250;10.412;2022-07-18T12:25:55;4.63;;;4.20;;
3865;SDS011;1948;53.250;10.412;2022-07-18T12:28:24;4.37;;;3.53;;
3865;SDS011;1948;53.250;10.412;2022-07-18T12:30:52;5.37;;;3.37;;
3865;SDS011;1948;53.250;10.412;2022-07-18T12:33:26;3.70;;;2.97;;
3865;SDS011;1948;53.250;10.412;2022-07-18T12:35:59;5.67;;;3.30;;
3865;SDS011;1948;53.250;10.412;2022-07-18T12:38:27;3.40;;;3.30;;
3865;SDS011;1948;53.250;10.412;2022-07-18T12:40:58;3.23;;;3.00;;
3865;SDS011;1948;53.250;10.412;2022-07-18T12:45:59;3.77;;;3.47;;
3865;SDS011;1948;53.250;10.412;2022-07-18T12:48:30;8.53;;;2.97;;
3865;SDS011;1948;53.250;10.412;2022-07-18T12:50:59;7.10;;;3.37;;
3865;SDS011;1948;53.250;10.412;2022-07-18T12:53:33;3.00;;;2.80;;
3865;SDS011;1948;53.250;10.412;2022-07-18T12:56:03;3.30;;;3.00;;
3865;SDS011;1948;53.250;10.412;2022-07-18T12:58:31;3.83;;;3.20;;
3865;SDS011;1948;53.250;10.412;2022-07-18T13:00:58;2.77;;;2.57;;
3865;SDS011;1948;53.250;10.412;2022-07-18T13:03:32;2.60;;;2.40;;
3865;SDS011;1948;53.250;10.412;2022-07-18T13:06:06;2.50;;;2.50;;
3865;SDS011;1948;53.250;10.412;2022-07-18T13:08:35;13.13;;;2.70;;
3865;SDS011;1948;53.250;10.412;2022-07-18T13:11:02;2.83;;;2.80;;
3865;SDS011;1948;53.250;10.412;2022-07-18T13:13:34;5.97;;;2.60;;
3865;SDS011;1948;53.250;10.412;2022-07-18T13:16:01;6.90;;;3.00;;
3865;SDS011;1948;53.250;10.412;2022-07-18T13:18:28;5.80;;;2.10;;
3865;SDS011;1948;53.250;10.412;2022-07-18T13:20:55;5.37;;;2.60;;
3865;SDS011;1948;53.250;10.412;2022-07-18T13:23:22;4.83;;;3.30;;
3865;SDS011;1948;53.250;10.412;2022-07-18T13:25:49;2.23;;;2.00;;
3865;SDS011;1948;53.250;10.412;2022-07-18T13:28:16;9.70;;;2.87;;
3865;SDS011;1948;53.250;10.412;2022-07-18T13:30:45;4.67;;;2.80;;
3865;SDS011;1948;53.250;10.412;2022-07-18T13:33:14;2.53;;;2.43;;
3865;SDS011;1948;53.250;10.412;2022-07-18T13:35:41;2.40;;;2.20;;
3865;SDS011;1948;53.250;10.412;2022-07-18T13:38:08;2.60;;;2.40;;
3865;SDS011;1948;53.250;10.412;2022-07-18T13:40:35;4.20;;;2.20;;
3865;SDS011;1948;53.250;10.412;2022-07-18T13:43:02;9.23;;;2.33;;
3865;SDS011;1948;53.250;10.412;2022-07-18T13:45:29;5.77;;;2.10;;
3865;SDS011;1948;53.250;10.412;2022-07-18T13:47:59;2.30;;;2.10;;
3865;SDS011;1948;53.250;10.412;2022-07-18T13:50:28;2.17;;;2.17;;
3865;SDS011;1948;53.250;10.412;2022-07-18T13:52:57;2.30;;;2.17;;
3865;SDS011;1948;53.250;10.412;2022-07-18T13:55:24;3.33;;;2.17;;
3865;SDS011;1948;53.250;10.412;2022-07-18T13:57:55;7.23;;;2.17;;
3865;SDS011;1948;53.250;10.412;2022-07-18T14:00:22;1.97;;;1.90;;
3865;SDS011;1948;53.250;10.412;2022-07-18T14:02:49;9.33;;;2.03;;
3865;SDS011;1948;53.250;10.412;2022-07-18T14:05:18;6.83;;;2.00;;
3865;SDS011;1948;53.250;10.412;2022-07-18T14:07:45;2.23;;;2.13;;
3865;SDS011;1948;53.250;10.412;2022-07-18T14:10:16;4.27;;;2.30;;
3865;SDS011;1948;53.250;10.412;2022-07-18T14:12:44;2.13;;;1.90;;
3865;SDS011;1948;53.250;10.412;2022-07-18T14:15:16;4.10;;;2.10;;
3865;SDS011;1948;53.250;10.412;2022-07-18T14:17:45;2.47;;;2.37;;
3865;SDS011;1948;53.250;10.412;2022-07-18T14:20:12;2.30;;;2.17;;
3865;SDS011;1948;53.250;10.412;2022-07-18T14:22:43;19.57;;;2.20;;
3865;SDS011;1948;53.250;10.412;2022-07-18T14:25:12;6.17;;;2.30;;
3865;SDS011;1948;53.250;10.412;2022-07-18T14:27:42;2.87;;;2.03;;
3865;SDS011;1948;53.250;10.412;2022-07-18T14:30:12;4.30;;;2.43;;
3865;SDS011;1948;53.250;10.412;2022-07-18T14:32:44;2.30;;;2.20;;
3865;SDS011;1948;53.250;10.412;2022-07-18T14:35:13;2.13;;;2.00;;
3865;SDS011;1948;53.250;10.412;2022-07-18T14:37:42;3.83;;;2.17;;
3865;SDS011;1948;53.250;10.412;2022-07-18T14:40:09;4.07;;;2.60;;
3865;SDS011;1948;53.250;10.412;2022-07-18T14:42:39;2.97;;;2.50;;
3865;SDS011;1948;53.250;10.412;2022-07-18T14:45:06;2.53;;;2.33;;
3865;SDS011;1948;53.250;10.412;2022-07-18T14:47:35;2.70;;;2.50;;
3865;SDS011;1948;53.250;10.412;2022-07-18T14:50:03;4.00;;;2.00;;
3865;SDS011;1948;53.250;10.412;2022-07-18T14:52:36;6.43;;;2.53;;
3865;SDS011;1948;53.250;10.412;2022-07-18T14:55:04;3.63;;;2.50;;
3865;SDS011;1948;53.250;10.412;2022-07-18T14:57:32;2.67;;;2.47;;
3865;SDS011;1948;53.250;10.412;2022-07-18T14:59:59;16.33;;;1.97;;
3865;SDS011;1948;53.250;10.412;2022-07-18T15:02:29;4.20;;;2.17;;
3865;SDS011;1948;53.250;10.412;2022-07-18T15:04:56;1.93;;;1.93;;
3865;SDS011;1948;53.250;10.412;2022-07-18T15:07:23;2.40;;;2.23;;
3865;SDS011;1948;53.250;10.412;2022-07-18T15:09:53;4.23;;;2.57;;
3865;SDS011;1948;53.250;10.412;2022-07-18T15:12:24;2.30;;;2.13;;
3865;SDS011;1948;53.250;10.412;2022-07-18T15:14:52;8.80;;;2.40;;
3865;SDS011;1948;53.250;10.412;2022-07-18T15:17:22;1.77;;;1.77;;
3865;SDS011;1948;53.250;10.412;2022-07-18T15:19:50;2.37;;;1.97;;
3865;SDS011;1948;53.250;10.412;2022-07-18T15:22:17;3.57;;;2.20;;
3865;SDS011;1948;53.250;10.412;2022-07-18T15:24:44;2.60;;;2.50;;
3865;SDS011;1948;53.250;10.412;2022-07-18T15:27:11;3.47;;;2.20;;
3865;SDS011;1948;53.250;10.412;2022-07-18T15:29:38;6.10;;;2.50;;
3865;SDS011;1948;53.250;10.412;2022-07-18T15:32:08;9.90;;;2.30;;
3865;SDS011;1948;53.250;10.412;2022-07-18T15:34:40;3.23;;;1.93;;
3865;SDS011;1948;53.250;10.412;2022-07-18T15:37:12;3.67;;;1.90;;
3865;SDS011;1948;53.250;10.412;2022-07-18T15:39:39;3.17;;;2.50;;
3865;SDS011;1948;53.250;10.412;2022-07-18T15:42:11;2.43;;;2.00;;
3865;SDS011;1948;53.250;10.412;2022-07-18T15:44:38;5.70;;;2.50;;
3865;SDS011;1948;53.250;10.412;2022-07-18T15:47:06;13.20;;;2.33;;
3865;SDS011;1948;53.250;10.412;2022-07-18T15:49:36;4.87;;;2.53;;
3865;SDS011;1948;53.250;10.412;2022-07-18T15:52:06;2.60;;;2.40;;
3865;SDS011;1948;53.250;10.412;2022-07-18T15:54:35;3.17;;;2.13;;
3865;SDS011;1948;53.250;10.412;2022-07-18T15:57:02;2.83;;;2.23;;
3865;SDS011;1948;53.250;10.412;2022-07-18T15:59:34;2.00;;;2.00;;
3865;SDS011;1948;53.250;10.412;2022-07-18T16:02:04;3.60;;;2.20;;